HORACE LAKE: From 05/23/2018 10:00 to 07/22/2018 21:00

Date LAKE ELEVATION [FT] PRECIPITATION INCREMENT [IN] AIR TEMPERATURE [F] RELATIVE HUMIDITY [%] RELEASE [CFS]
07/22/2018 16:00 655.52 0.02 67.4 100.0 --
07/22/2018 15:00 655.51 0.08 64.7 100.0 --
07/22/2018 14:00 655.49 0.03 64.0 100.0 --
07/22/2018 13:00 655.50 0.07 62.6 100.0 --
07/22/2018 12:00 655.49 0.00 61.2 100.0 --
07/22/2018 11:00 655.49 0.05 61.2 100.0 --
07/22/2018 10:00 655.48 0.03 60.2 100.0 --
07/22/2018 09:00 655.48 0.00 60.5 100.0 --
07/22/2018 08:00 655.49 0.00 60.7 100.0 --
07/22/2018 07:00 655.49 0.00 60.7 100.0 --
07/22/2018 06:00 655.49 0.00 60.7 100.0 --
07/22/2018 05:00 655.49 0.00 60.8 100.0 --
07/22/2018 04:00 655.49 0.00 60.4 100.0 --
07/22/2018 03:00 655.49 0.00 60.0 100.0 --
07/22/2018 02:00 655.49 0.00 58.4 100.0 --
07/22/2018 01:00 655.49 0.00 58.4 100.0 --
07/22/2018 00:00 655.48 0.00 58.4 100.0 --
07/21/2018 23:00 655.49 0.00 64.4 78.0 --
07/21/2018 22:00 655.49 0.00 66.9 67.0 --
07/21/2018 21:00 655.51 0.00 70.9 59.0 --
07/21/2018 20:00 655.51 0.00 70.9 59.0 --
07/21/2018 19:00 655.49 0.00 73.8 59.0 --
07/21/2018 18:00 655.49 0.00 76.1 44.0 --
07/21/2018 17:00 655.50 0.00 76.3 50.0 --
07/21/2018 16:00 655.51 0.00 75.2 48.0 --
07/21/2018 15:00 655.51 0.00 75.2 48.0 --
07/21/2018 14:00 655.49 0.00 73.0 55.0 --
07/21/2018 13:00 655.50 0.00 68.9 76.0 --
07/21/2018 12:00 655.50 0.00 67.8 79.0 --
07/21/2018 11:00 655.50 0.00 64.1 86.0 --
07/21/2018 10:00 655.50 0.00 60.8 100.0 --
07/21/2018 09:00 655.50 0.00 55.5 100.0 --
07/21/2018 08:00 655.50 0.00 54.5 100.0 --
07/21/2018 07:00 655.50 0.00 55.2 100.0 --
07/21/2018 06:00 655.50 0.00 55.7 100.0 --
07/21/2018 05:00 655.49 0.00 56.9 100.0 --
07/21/2018 04:00 655.50 0.00 58.2 100.0 --
07/21/2018 03:00 655.51 0.00 59.4 100.0 --
07/21/2018 02:00 655.51 0.00 59.4 100.0 --
07/21/2018 01:00 655.50 0.00 60.5 98.0 --
07/21/2018 00:00 655.50 0.00 61.6 87.0 --
07/20/2018 23:00 655.50 0.00 64.0 77.0 --
07/20/2018 22:00 655.50 0.00 74.7 54.0 --
07/20/2018 21:00 655.50 0.00 78.6 50.0 --
07/20/2018 20:00 655.51 0.00 81.3 42.0 --
07/20/2018 19:00 655.51 0.00 81.3 42.0 --
07/20/2018 18:00 655.51 0.00 81.3 36.0 --
07/20/2018 17:00 655.50 0.00 81.8 39.0 --
07/20/2018 16:00 655.50 0.00 80.4 39.0 --
07/20/2018 15:00 655.51 0.00 79.8 43.0 --
07/20/2018 14:00 655.51 0.00 78.3 48.0 --
07/20/2018 13:00 655.51 0.00 76.4 51.0 --
07/20/2018 12:00 655.51 0.00 74.0 69.0 --
07/20/2018 11:00 655.51 0.00 67.4 79.0 --
07/20/2018 10:00 655.51 0.00 61.3 97.0 --
07/20/2018 09:00 655.51 0.00 61.3 97.0 --
07/20/2018 08:00 655.51 0.00 57.0 100.0 --
07/20/2018 07:00 655.51 0.00 55.3 100.0 --
07/20/2018 06:00 655.51 0.00 56.6 100.0 --
07/20/2018 05:00 655.52 0.00 57.2 100.0 --
07/20/2018 04:00 655.51 0.00 57.7 100.0 --
07/20/2018 03:00 655.51 0.00 58.5 100.0 --
07/20/2018 02:00 655.51 0.00 58.5 100.0 --
07/20/2018 01:00 655.51 0.00 59.4 92.0 --
07/20/2018 00:00 655.52 0.00 64.7 77.0 --
07/19/2018 23:00 655.52 0.00 64.7 77.0 --
07/19/2018 22:00 655.52 0.00 65.9 75.0 --
07/19/2018 21:00 655.51 0.00 74.6 53.0 --
07/19/2018 20:00 655.52 0.00 78.6 35.0 --
07/19/2018 19:00 655.52 0.00 77.7 31.0 --
07/19/2018 18:00 655.52 0.00 77.7 31.0 --
07/19/2018 17:00 655.52 0.00 77.3 37.0 --
07/19/2018 16:00 655.52 0.00 75.4 32.0 --
07/19/2018 15:00 655.53 0.00 73.9 38.0 --
07/19/2018 14:00 655.53 0.00 71.8 39.0 --
07/19/2018 13:00 655.52 0.00 72.0 39.0 --
07/19/2018 12:00 655.52 0.00 69.2 46.0 --
07/19/2018 11:00 655.53 0.00 64.5 66.0 --
07/19/2018 10:00 655.53 0.00 58.9 75.0 --
07/19/2018 09:00 655.53 0.00 53.6 92.0 --
07/19/2018 08:00 655.53 0.00 52.0 100.0 --
07/19/2018 07:00 655.53 0.00 52.5 97.0 --
07/19/2018 06:00 655.52 0.00 54.0 93.0 --
07/19/2018 05:00 655.53 0.00 55.6 87.0 --
07/19/2018 04:00 655.53 0.00 56.6 88.0 --
07/19/2018 03:00 655.53 0.00 56.6 88.0 --
07/19/2018 02:00 655.53 0.00 56.2 81.0 --
07/19/2018 01:00 655.53 0.00 59.9 83.0 --
07/19/2018 00:00 655.53 0.00 60.8 79.0 --
07/18/2018 23:00 655.53 0.00 61.8 76.0 --
07/18/2018 22:00 655.53 0.00 61.8 76.0 --
07/18/2018 21:00 655.52 0.00 66.9 62.0 --
07/18/2018 20:00 655.53 0.00 74.7 40.0 --
07/18/2018 19:00 655.52 0.00 74.3 39.0 --
07/18/2018 18:00 655.54 0.00 73.6 40.0 --
07/18/2018 17:00 655.54 0.00 73.6 40.0 --
07/18/2018 16:00 655.53 0.00 72.8 40.0 --
07/18/2018 15:00 655.53 0.00 71.5 45.0 --
07/18/2018 14:00 655.54 0.00 70.4 54.0 --
07/18/2018 13:00 655.54 0.00 68.0 62.0 --
07/18/2018 12:00 655.54 0.00 66.2 66.0 --
07/18/2018 11:00 655.54 0.00 65.2 78.0 --
07/18/2018 10:00 655.54 0.00 64.1 84.0 --
07/18/2018 09:00 655.55 0.00 63.4 99.0 --
07/18/2018 08:00 655.54 0.00 62.0 100.0 --
07/18/2018 07:00 655.54 0.00 62.0 100.0 --
07/18/2018 06:00 655.54 0.00 63.7 100.0 --
07/18/2018 05:00 655.54 0.00 67.4 100.0 --
07/18/2018 04:00 655.55 0.00 68.7 100.0 --
07/18/2018 03:00 655.54 0.00 69.3 100.0 --
07/18/2018 02:00 655.54 0.00 69.3 100.0 --
07/18/2018 01:00 655.54 0.00 69.4 100.0 --
07/18/2018 00:00 655.54 0.00 70.3 100.0 --
07/17/2018 23:00 655.54 0.00 70.5 100.0 --
07/17/2018 22:00 655.54 0.00 69.9 100.0 --
07/17/2018 21:00 655.54 0.03 69.9 100.0 --
07/17/2018 20:00 655.54 0.10 69.6 100.0 --
07/17/2018 19:00 655.54 0.09 69.2 100.0 --
07/17/2018 18:00 655.52 0.04 69.6 100.0 --
07/17/2018 17:00 655.52 0.01 70.2 100.0 --
07/17/2018 16:00 655.53 0.07 68.9 100.0 --
07/17/2018 15:00 655.52 0.04 69.3 100.0 --
07/17/2018 14:00 655.49 0.24 69.9 100.0 --
07/17/2018 13:00 655.49 0.00 78.0 86.0 --
07/17/2018 12:00 655.50 0.00 77.6 87.0 --
07/17/2018 11:00 655.50 0.00 77.0 89.0 --
07/17/2018 10:00 655.50 0.00 77.2 88.3 --
07/17/2018 09:00 655.50 0.00 77.3 87.7 --
07/17/2018 08:00 655.50 0.00 77.5 87.0 --
07/17/2018 07:00 655.49 0.00 77.6 86.3 --
07/17/2018 06:00 655.49 0.00 77.8 85.7 --
07/17/2018 05:00 655.49 0.00 77.9 85.0 --
07/17/2018 04:00 655.49 0.00 78.0 84.3 --
07/17/2018 03:00 655.49 0.00 78.2 83.7 --
07/17/2018 02:00 655.49 0.00 78.3 83.0 --
07/17/2018 01:00 655.48 0.00 78.5 82.3 --
07/17/2018 00:00 655.48 0.00 78.7 81.7 --
07/16/2018 23:00 655.48 0.00 78.8 81.0 --
07/16/2018 22:00 655.49 0.00 80.2 76.0 --
07/16/2018 21:00 655.50 0.00 83.4 66.0 --
07/16/2018 20:00 655.50 0.00 83.4 66.0 --
07/16/2018 19:00 655.50 0.00 84.6 60.0 --
07/16/2018 18:00 655.50 0.00 84.5 61.0 --
07/16/2018 17:00 655.49 0.00 83.6 62.0 --
07/16/2018 16:00 655.50 0.00 83.7 52.0 --
07/16/2018 15:00 655.50 0.00 83.7 52.0 --
07/16/2018 14:00 655.50 0.00 81.9 51.0 --
07/16/2018 13:00 655.50 0.00 80.2 60.0 --
07/16/2018 12:00 655.49 0.00 76.0 83.0 --
07/16/2018 11:00 655.49 0.00 68.4 100.0 --
07/16/2018 10:00 655.49 0.00 67.3 100.0 --
07/16/2018 09:00 655.50 0.00 67.3 100.0 --
07/16/2018 08:00 655.50 0.00 67.3 100.0 --
07/16/2018 07:00 655.50 0.00 66.6 100.0 --
07/16/2018 06:00 655.50 0.00 67.2 100.0 --
07/16/2018 05:00 655.50 0.00 67.2 100.0 --
07/16/2018 04:00 655.49 0.00 67.2 100.0 --
07/16/2018 03:00 655.50 0.00 66.5 100.0 --
07/16/2018 02:00 655.50 0.00 67.2 100.0 --
07/16/2018 01:00 655.49 0.00 68.3 100.0 --
07/16/2018 00:00 655.49 0.00 68.3 100.0 --
07/15/2018 23:00 655.49 0.00 69.3 100.0 --
07/15/2018 22:00 655.49 0.00 76.0 79.0 --
07/15/2018 21:00 655.50 0.00 77.9 73.0 --
07/15/2018 20:00 655.51 0.00 78.3 72.0 --
07/15/2018 19:00 655.51 0.00 79.3 65.0 --
07/15/2018 18:00 655.49 0.00 82.8 59.0 --
07/15/2018 17:00 655.49 0.00 83.3 60.0 --
07/15/2018 16:00 655.50 0.00 81.7 58.0 --
07/15/2018 15:00 655.50 0.00 78.9 67.0 --
07/15/2018 14:00 655.50 0.00 78.9 67.0 --
07/15/2018 13:00 655.50 0.00 76.1 76.0 --
07/15/2018 12:00 655.50 0.00 67.9 98.0 --
07/15/2018 11:00 655.50 0.00 65.9 100.0 --
07/15/2018 10:00 655.50 0.00 64.7 100.0 --
07/15/2018 09:00 655.50 0.00 64.7 100.0 --
07/15/2018 08:00 655.50 0.00 62.8 100.0 --
07/15/2018 07:00 655.50 0.00 62.1 100.0 --
07/15/2018 06:00 655.50 0.00 62.0 100.0 --
07/15/2018 05:00 655.50 0.00 61.9 100.0 --
07/15/2018 04:00 655.50 0.00 61.9 100.0 --
07/15/2018 03:00 655.50 0.00 61.8 100.0 --
07/15/2018 02:00 655.50 0.00 61.8 100.0 --
07/15/2018 01:00 655.49 0.00 61.4 100.0 --
07/15/2018 00:00 655.51 0.01 62.4 100.0 --
07/14/2018 23:00 655.50 0.01 64.5 100.0 --
07/14/2018 22:00 655.50 0.00 69.4 72.0 --
07/14/2018 21:00 655.50 0.00 71.3 71.0 --
07/14/2018 20:00 655.50 0.00 72.5 75.0 --
07/14/2018 19:00 655.50 0.00 74.1 73.0 --
07/14/2018 18:00 655.50 0.00 73.8 72.0 --
07/14/2018 17:00 655.50 0.00 72.6 74.0 --
07/14/2018 16:00 655.50 0.00 72.6 74.0 --
07/14/2018 15:00 655.50 0.00 71.2 75.0 --
07/14/2018 14:00 655.50 0.00 67.6 80.0 --
07/14/2018 13:00 655.50 0.00 67.6 80.0 --
07/14/2018 12:00 655.50 0.00 66.2 82.0 --
07/14/2018 11:00 655.49 0.00 64.5 84.0 --
07/14/2018 10:00 655.49 0.00 60.4 93.0 --
07/14/2018 09:00 655.50 0.00 57.6 100.0 --
07/14/2018 08:00 655.50 0.00 54.5 100.0 --
07/14/2018 07:00 655.50 0.00 54.7 100.0 --
07/14/2018 06:00 655.50 0.00 54.7 100.0 --
07/14/2018 05:00 655.49 0.00 55.3 100.0 --
07/14/2018 04:00 655.50 0.00 57.0 99.0 --
07/14/2018 03:00 655.50 0.00 58.9 91.0 --
07/14/2018 02:00 655.50 0.00 59.2 90.0 --
07/14/2018 01:00 655.49 0.00 60.9 82.0 --
07/14/2018 00:00 655.50 0.00 64.0 73.0 --
07/13/2018 23:00 655.50 0.00 67.0 70.0 --
07/13/2018 22:00 655.50 0.00 70.8 62.0 --
07/13/2018 21:00 655.50 0.00 73.8 59.0 --
07/13/2018 20:00 655.50 0.00 73.8 59.0 --
07/13/2018 19:00 655.50 0.00 76.9 57.0 --
07/13/2018 18:00 655.50 0.00 82.1 38.0 --
07/13/2018 17:00 655.51 0.00 80.6 38.0 --
07/13/2018 16:00 655.51 0.00 78.4 44.0 --
07/13/2018 15:00 655.51 0.00 78.5 49.0 --
07/13/2018 14:00 655.50 0.00 76.5 52.0 --
07/13/2018 13:00 655.51 0.00 72.6 56.0 --
07/13/2018 12:00 655.50 0.00 71.8 60.0 --
07/13/2018 11:00 655.51 0.00 67.8 66.0 --
07/13/2018 10:00 655.51 0.00 67.8 66.0 --
07/13/2018 09:00 655.51 0.00 62.7 79.0 --
07/13/2018 08:00 655.50 0.00 55.3 100.0 --
07/13/2018 07:00 655.50 0.00 55.8 100.0 --
07/13/2018 06:00 655.51 0.00 57.4 99.0 --
07/13/2018 05:00 655.51 0.00 57.4 99.0 --
07/13/2018 04:00 655.51 0.00 60.7 85.0 --
07/13/2018 03:00 655.50 0.00 64.6 70.0 --
07/13/2018 02:00 655.51 0.00 66.9 61.0 --
07/13/2018 01:00 655.51 0.00 69.1 53.0 --
07/13/2018 00:00 655.51 0.00 70.5 56.0 --
07/12/2018 23:00 655.50 0.00 72.1 50.0 --
07/12/2018 22:00 655.51 0.00 70.6 60.0 --
07/12/2018 21:00 655.51 0.00 70.6 60.0 --
07/12/2018 20:00 655.51 0.00 75.1 46.0 --
07/12/2018 19:00 655.50 0.00 75.2 52.0 --
07/12/2018 18:00 655.51 0.00 75.0 52.0 --
07/12/2018 17:00 655.52 0.00 77.0 33.0 --
07/12/2018 16:00 655.52 0.00 76.2 36.0 --
07/12/2018 15:00 655.51 0.00 75.7 36.0 --
07/12/2018 14:00 655.52 0.00 73.2 39.0 --
07/12/2018 13:00 655.52 0.00 72.6 43.0 --
07/12/2018 12:00 655.52 0.00 70.5 44.0 --
07/12/2018 11:00 655.52 0.00 68.5 65.0 --
07/12/2018 10:00 655.51 0.00 60.4 80.0 --
07/12/2018 09:00 655.52 0.00 55.5 98.0 --
07/12/2018 08:00 655.52 0.00 55.5 98.0 --
07/12/2018 07:00 655.51 0.00 53.9 100.0 --
07/12/2018 06:00 655.53 0.00 56.0 90.0 --
07/12/2018 05:00 655.52 0.00 56.7 88.0 --
07/12/2018 04:00 655.52 0.00 58.3 83.0 --
07/12/2018 03:00 655.52 0.00 59.8 84.0 --
07/12/2018 02:00 655.52 0.00 59.6 75.0 --
07/12/2018 01:00 655.51 0.00 58.4 79.0 --
07/12/2018 00:00 655.52 0.00 60.6 71.0 --
07/11/2018 23:00 655.52 0.00 62.7 68.0 --
07/11/2018 22:00 655.52 0.00 69.8 48.0 --
07/11/2018 21:00 655.52 0.00 75.0 47.0 --
07/11/2018 20:00 655.52 0.00 78.6 42.0 --
07/11/2018 19:00 655.52 0.00 78.6 42.0 --
07/11/2018 18:00 655.52 0.00 78.2 51.0 --
07/11/2018 17:00 655.53 0.00 75.2 52.0 --
07/11/2018 16:00 655.53 0.00 75.5 51.0 --
07/11/2018 15:00 655.53 0.00 75.4 47.0 --
07/11/2018 14:00 655.54 0.00 73.4 58.0 --
07/11/2018 13:00 655.53 0.00 71.5 76.0 --
07/11/2018 12:00 655.53 0.00 70.2 76.0 --
07/11/2018 11:00 655.53 0.00 67.9 100.0 --
07/11/2018 10:00 655.52 0.00 66.5 100.0 --
07/11/2018 09:00 655.52 0.00 66.5 100.0 --
07/11/2018 08:00 655.52 0.00 62.9 100.0 --
07/11/2018 07:00 655.53 0.00 63.3 100.0 --
07/11/2018 06:00 655.52 0.00 64.5 100.0 --
07/11/2018 05:00 655.52 0.00 64.3 100.0 --
07/11/2018 04:00 655.52 0.00 64.3 100.0 --
07/11/2018 03:00 655.51 0.00 65.2 100.0 --
07/11/2018 02:00 655.53 0.00 65.7 100.0 --
07/11/2018 01:00 655.52 0.00 66.9 100.0 --
07/11/2018 00:00 655.52 0.00 67.2 100.0 --
07/10/2018 23:00 655.53 0.01 68.5 100.0 --
07/10/2018 22:00 655.52 0.59 67.9 100.0 --
07/10/2018 21:00 655.47 0.00 75.7 58.0 --
07/10/2018 20:00 655.48 0.00 83.3 48.0 --
07/10/2018 19:00 655.48 0.00 84.4 45.0 --
07/10/2018 18:00 655.48 0.00 84.4 45.0 --
07/10/2018 17:00 655.48 0.00 86.1 42.0 --
07/10/2018 16:00 655.47 0.00 84.6 45.0 --
07/10/2018 15:00 655.48 0.00 86.1 36.0 --
07/10/2018 14:00 655.48 0.00 83.4 41.0 --
07/10/2018 13:00 655.48 0.00 83.4 41.0 --
07/10/2018 12:00 655.48 0.00 81.4 46.0 --
07/10/2018 11:00 655.48 0.00 75.9 57.0 --
07/10/2018 10:00 655.49 0.00 71.1 69.0 --
07/10/2018 09:00 655.49 0.00 66.1 84.0 --
07/10/2018 08:00 655.49 0.00 66.1 84.0 --
07/10/2018 07:00 655.49 0.00 65.0 91.0 --
07/10/2018 06:00 655.49 0.00 63.7 95.0 --
07/10/2018 05:00 655.48 0.00 64.4 100.0 --
07/10/2018 04:00 655.47 0.00 62.4 97.0 --
07/10/2018 03:00 655.49 0.00 63.7 89.0 --
07/10/2018 02:00 655.48 0.00 69.0 76.0 --
07/10/2018 01:00 655.49 0.00 70.3 74.0 --
07/10/2018 00:00 655.48 0.00 70.9 67.0 --
07/09/2018 23:00 655.48 0.00 73.0 66.0 --
07/09/2018 22:00 655.49 0.00 78.7 48.0 --
07/09/2018 21:00 655.48 0.00 85.5 37.0 --
07/09/2018 20:00 655.48 0.00 85.5 37.0 --
07/09/2018 19:00 655.48 0.00 86.3 40.0 --
07/09/2018 18:00 655.49 0.00 85.4 38.0 --
07/09/2018 17:00 655.49 0.00 85.4 38.0 --
07/09/2018 16:00 655.49 0.00 84.8 35.0 --
07/09/2018 15:00 655.50 0.00 82.9 41.0 --
07/09/2018 14:00 655.49 0.00 80.6 41.0 --
07/09/2018 13:00 655.49 0.00 78.3 50.0 --
07/09/2018 12:00 655.49 0.00 75.4 59.0 --
07/09/2018 11:00 655.49 0.00 71.5 65.0 --
07/09/2018 10:00 655.50 0.00 66.9 75.0 --
07/09/2018 09:00 655.50 0.00 62.1 87.0 --
07/09/2018 08:00 655.50 0.00 61.6 90.0 --
07/09/2018 07:00 655.49 0.00 63.0 88.0 --
07/09/2018 06:00 655.49 0.00 60.6 99.0 --
07/09/2018 05:00 655.49 0.00 61.8 97.0 --
07/09/2018 04:00 655.49 0.00 61.8 96.0 --
07/09/2018 03:00 655.49 0.00 62.9 90.0 --
07/09/2018 02:00 655.49 0.00 63.3 86.0 --
07/09/2018 01:00 655.49 0.00 65.5 81.0 --
07/09/2018 00:00 655.48 0.00 67.9 72.0 --
07/08/2018 23:00 655.49 0.00 70.0 71.0 --
07/08/2018 22:00 655.49 0.00 75.3 56.0 --
07/08/2018 21:00 655.49 0.00 75.3 56.0 --
07/08/2018 20:00 655.49 0.00 81.6 40.0 --
07/08/2018 19:00 655.48 0.00 81.7 36.0 --
07/08/2018 18:00 655.50 0.00 80.7 35.0 --
07/08/2018 17:00 655.49 0.00 80.8 34.0 --
07/08/2018 16:00 655.49 0.00 78.8 36.0 --
07/08/2018 15:00 655.49 0.00 77.2 40.0 --
07/08/2018 14:00 655.50 0.00 76.6 42.0 --
07/08/2018 13:00 655.50 0.00 75.1 49.0 --
07/08/2018 12:00 655.49 0.00 74.0 51.0 --
07/08/2018 11:00 655.49 0.00 74.0 51.0 --
07/08/2018 10:00 655.50 0.00 68.4 68.0 --
07/08/2018 09:00 655.50 0.00 55.8 100.0 --
07/08/2018 08:00 655.49 0.00 54.2 100.0 --
07/08/2018 07:00 655.50 0.00 54.3 100.0 --
07/08/2018 06:00 655.50 0.00 54.3 100.0 --
07/08/2018 05:00 655.50 0.00 55.3 100.0 --
07/08/2018 04:00 655.50 0.00 57.1 95.0 --
07/08/2018 03:00 655.50 0.00 57.8 92.0 --
07/08/2018 02:00 655.50 0.00 59.2 87.0 --
07/08/2018 01:00 655.50 0.00 59.2 87.0 --
07/08/2018 00:00 655.50 0.00 60.9 79.0 --
07/07/2018 23:00 655.49 0.00 64.1 71.0 --
07/07/2018 22:00 655.50 0.00 69.4 56.0 --
07/07/2018 21:00 655.49 0.00 75.1 41.0 --
07/07/2018 20:00 655.49 0.00 75.0 37.0 --
07/07/2018 19:00 655.50 0.00 74.8 39.0 --
07/07/2018 18:00 655.50 0.00 74.8 39.0 --
07/07/2018 17:00 655.50 0.00 74.1 42.0 --
07/07/2018 16:00 655.51 0.00 72.1 36.0 --
07/07/2018 15:00 655.49 0.00 70.2 39.0 --
07/07/2018 14:00 655.51 0.00 68.5 38.0 --
07/07/2018 13:00 655.51 0.00 68.5 38.0 --
07/07/2018 12:00 655.50 0.00 67.5 43.0 --
07/07/2018 11:00 655.51 0.00 62.1 57.0 --
07/07/2018 10:00 655.50 0.00 58.2 71.0 --
07/07/2018 09:00 655.50 0.00 52.0 94.0 --
07/07/2018 08:00 655.51 0.00 50.8 97.0 --
07/07/2018 07:00 655.51 0.00 51.7 91.0 --
07/07/2018 06:00 655.51 0.00 52.5 87.0 --
07/07/2018 05:00 655.51 0.00 52.5 87.0 --
07/07/2018 04:00 655.51 0.00 53.1 80.0 --
07/07/2018 03:00 655.51 0.00 57.6 64.0 --
07/07/2018 02:00 655.51 0.00 60.3 61.0 --
07/07/2018 01:00 655.51 0.00 61.7 58.0 --
07/07/2018 00:00 655.51 0.00 61.7 58.0 --
07/06/2018 23:00 655.50 0.00 62.3 52.0 --
07/06/2018 22:00 655.49 0.00 68.0 53.0 --
07/06/2018 21:00 655.51 0.00 71.1 55.0 --
07/06/2018 20:00 655.50 0.00 75.2 49.0 --
07/06/2018 19:00 655.50 0.00 75.2 49.0 --
07/06/2018 18:00 655.52 0.00 76.7 54.0 --
07/06/2018 17:00 655.51 0.00 79.8 60.0 --
07/06/2018 16:00 655.53 0.00 77.6 67.0 --
07/06/2018 15:00 655.52 0.00 80.7 73.0 --
07/06/2018 14:00 655.52 0.00 80.7 73.0 --
07/06/2018 13:00 655.51 0.00 78.1 84.0 --
07/06/2018 12:00 655.53 0.00 77.2 89.0 --
07/06/2018 11:00 655.52 0.00 77.1 92.0 --
07/06/2018 10:00 655.52 0.11 75.4 100.0 --
07/06/2018 09:00 655.52 0.02 76.6 92.0 --
07/06/2018 08:00 655.52 0.00 78.3 83.0 --
07/06/2018 07:00 655.51 0.00 78.6 83.0 --
07/06/2018 06:00 655.52 0.00 78.3 85.0 --
07/06/2018 05:00 655.52 0.00 77.7 86.0 --
07/06/2018 04:00 655.51 0.00 78.3 85.0 --
07/06/2018 03:00 655.52 0.00 78.8 84.0 --
07/06/2018 02:00 655.52 0.00 78.8 84.0 --
07/06/2018 01:00 655.51 0.00 78.9 83.0 --
07/06/2018 00:00 655.51 0.00 81.8 68.0 --
07/05/2018 23:00 655.52 0.00 83.3 65.0 --
07/05/2018 22:00 655.52 0.00 84.4 68.0 --
07/05/2018 21:00 655.50 0.00 85.7 65.0 --
07/05/2018 20:00 655.53 0.00 86.3 64.0 --
07/05/2018 19:00 655.53 0.00 86.5 65.0 --
07/05/2018 18:00 655.53 0.00 86.5 65.0 --
07/05/2018 17:00 655.52 0.00 86.3 63.0 --
07/05/2018 16:00 655.52 0.00 88.3 56.0 --
07/05/2018 15:00 655.54 0.00 87.0 57.0 --
07/05/2018 14:00 655.53 0.00 86.3 60.0 --
07/05/2018 13:00 655.54 0.00 85.2 63.0 --
07/05/2018 12:00 655.53 0.00 84.2 65.0 --
07/05/2018 11:00 655.52 0.00 80.4 79.0 --
07/05/2018 10:00 655.52 0.00 80.4 79.0 --
07/05/2018 09:00 655.53 0.00 75.6 97.0 --
07/05/2018 08:00 655.52 0.00 70.4 100.0 --
07/05/2018 07:00 655.53 0.00 69.1 100.0 --
07/05/2018 06:00 655.53 0.00 69.4 100.0 --
07/05/2018 05:00 655.53 0.00 69.7 100.0 --
07/05/2018 04:00 655.54 0.00 70.3 100.0 --
07/05/2018 03:00 655.54 0.00 70.3 100.0 --
07/05/2018 02:00 655.53 0.00 71.2 100.0 --
07/05/2018 01:00 655.53 0.00 74.0 90.0 --
07/05/2018 00:00 655.53 0.00 74.1 89.0 --
07/04/2018 23:00 655.53 0.00 76.1 85.0 --
07/04/2018 22:00 655.53 0.00 76.1 85.0 --
07/04/2018 21:00 655.52 0.00 78.7 73.0 --
07/04/2018 20:00 655.53 0.00 89.4 46.0 --
07/04/2018 19:00 655.53 0.00 89.4 46.0 --
07/04/2018 18:00 655.51 0.00 89.6 38.0 --
07/04/2018 17:00 655.54 0.00 88.8 35.0 --
07/04/2018 16:00 655.55 0.00 89.0 39.0 --
07/04/2018 15:00 655.53 0.00 88.2 37.0 --
07/04/2018 14:00 655.53 0.00 88.2 37.0 --
07/04/2018 13:00 655.52 0.00 86.5 39.0 --
07/04/2018 12:00 655.53 0.00 84.9 52.0 --
07/04/2018 11:00 655.54 0.00 82.4 66.0 --
07/04/2018 10:00 655.53 0.00 71.7 85.0 --
07/04/2018 09:00 655.54 0.00 67.1 100.0 --
07/04/2018 08:00 655.53 0.00 65.7 100.0 --
07/04/2018 07:00 655.53 0.00 65.7 100.0 --
07/04/2018 06:00 655.54 0.00 66.4 100.0 --
07/04/2018 05:00 655.54 0.00 69.1 92.0 --
07/04/2018 04:00 655.54 0.00 70.1 93.0 --
07/04/2018 03:00 655.54 0.00 70.8 93.0 --
07/04/2018 02:00 655.54 0.00 70.8 93.0 --
07/04/2018 01:00 655.55 0.00 72.3 91.0 --
07/04/2018 00:00 655.54 0.00 76.2 80.0 --
07/03/2018 23:00 655.54 0.00 77.8 83.0 --
07/03/2018 22:00 655.54 0.00 81.9 74.0 --
07/03/2018 21:00 655.54 0.00 84.0 67.0 --
07/03/2018 20:00 655.54 0.00 90.1 44.0 --
07/03/2018 19:00 655.55 0.00 88.9 60.0 --
07/03/2018 18:00 655.54 0.00 85.8 64.0 --
07/03/2018 17:00 655.54 0.00 89.1 54.0 --
07/03/2018 16:00 655.54 0.00 89.1 54.0 --
07/03/2018 15:00 655.56 0.00 90.7 48.0 --
07/03/2018 14:00 655.56 0.00 87.8 57.0 --
07/03/2018 13:00 655.56 0.00 85.7 63.0 --
07/03/2018 12:00 655.56 0.00 83.0 69.0 --
07/03/2018 11:00 655.54 0.00 80.7 72.0 --
07/03/2018 10:00 655.56 0.00 77.2 85.0 --
07/03/2018 09:00 655.56 0.00 74.0 100.0 --
07/03/2018 08:00 655.56 0.00 74.0 100.0 --
07/03/2018 07:00 655.55 0.00 72.7 100.0 --
07/03/2018 06:00 655.56 0.00 72.2 100.0 --
07/03/2018 05:00 655.56 0.00 71.9 100.0 --
07/03/2018 04:00 655.56 0.00 71.4 100.0 --
07/03/2018 03:00 655.56 0.00 71.4 100.0 --
07/03/2018 02:00 655.56 0.00 72.8 100.0 --
07/03/2018 01:00 655.56 0.00 74.1 100.0 --
07/03/2018 00:00 655.55 0.00 76.0 100.0 --
07/02/2018 23:00 655.56 0.00 78.0 96.0 --
07/02/2018 22:00 655.56 0.00 81.3 85.0 --
07/02/2018 21:00 655.56 0.00 83.8 79.0 --
07/02/2018 20:00 655.56 0.00 83.8 79.0 --
07/02/2018 19:00 655.56 0.00 86.5 71.0 --
07/02/2018 18:00 655.56 0.00 88.9 62.0 --
07/02/2018 17:00 655.56 0.00 88.9 62.0 --
07/02/2018 16:00 655.57 0.00 87.3 64.0 --
07/02/2018 15:00 655.56 0.00 84.2 66.0 --
07/02/2018 14:00 655.57 0.00 82.6 67.0 --
07/02/2018 13:00 655.57 0.00 80.2 70.0 --
07/02/2018 12:00 655.57 0.00 80.2 70.0 --
07/02/2018 11:00 655.57 0.00 77.5 76.0 --
07/02/2018 10:00 655.56 0.00 71.0 100.0 --
07/02/2018 09:00 655.56 0.00 67.8 100.0 --
07/02/2018 08:00 655.57 0.00 66.6 100.0 --
07/02/2018 07:00 655.57 0.00 66.6 100.0 --
07/02/2018 06:00 655.57 0.00 66.5 100.0 --
07/02/2018 05:00 655.58 0.00 68.1 100.0 --
07/02/2018 04:00 655.57 0.00 69.2 100.0 --
07/02/2018 03:00 655.57 0.00 69.4 100.0 --
07/02/2018 02:00 655.58 0.00 70.4 100.0 --
07/02/2018 01:00 655.57 0.00 71.6 99.0 --
07/02/2018 00:00 655.58 0.00 73.4 91.0 --
07/01/2018 23:00 655.58 0.00 76.9 78.0 --
07/01/2018 22:00 655.58 0.00 80.7 72.0 --
07/01/2018 21:00 655.58 0.00 84.6 71.0 --
07/01/2018 20:00 655.58 0.00 88.0 67.0 --
07/01/2018 19:00 655.57 0.00 89.3 66.0 --
07/01/2018 18:00 655.57 0.00 89.3 66.0 --
07/01/2018 17:00 655.58 0.00 92.6 48.0 --
07/01/2018 16:00 655.58 0.00 90.4 55.0 --
07/01/2018 15:00 655.58 0.00 89.6 57.0 --
07/01/2018 14:00 655.59 0.00 88.4 61.0 --
07/01/2018 13:00 655.59 0.00 88.4 61.0 --
07/01/2018 12:00 655.59 0.00 86.9 63.0 --
07/01/2018 11:00 655.59 0.00 83.6 74.0 --
07/01/2018 10:00 655.58 0.00 79.0 83.0 --
07/01/2018 09:00 655.59 0.00 71.5 100.0 --
07/01/2018 08:00 655.58 0.00 72.5 89.0 --
07/01/2018 07:00 655.60 0.00 70.6 97.0 --
07/01/2018 06:00 655.59 0.00 72.3 93.0 --
07/01/2018 05:00 655.58 0.00 68.9 100.0 --
07/01/2018 04:00 655.60 0.00 70.8 98.0 --
07/01/2018 03:00 655.60 0.00 70.8 98.0 --
07/01/2018 02:00 655.59 0.00 71.9 97.0 --
07/01/2018 01:00 655.58 0.00 73.9 86.0 --
07/01/2018 00:00 655.59 0.00 75.0 82.0 --
06/30/2018 23:00 655.60 0.00 80.5 65.0 --
06/30/2018 22:00 655.60 0.00 80.5 65.0 --
06/30/2018 21:00 655.60 0.00 82.6 61.0 --
06/30/2018 20:00 655.61 0.00 86.3 51.0 --
06/30/2018 19:00 655.60 0.00 86.6 47.0 --
06/30/2018 18:00 655.60 0.00 87.2 43.0 --
06/30/2018 17:00 655.60 0.00 86.0 42.0 --
06/30/2018 16:00 655.61 0.00 84.7 45.0 --
06/30/2018 15:00 655.61 0.00 84.7 45.0 --
06/30/2018 14:00 655.62 0.00 83.9 54.0 --
06/30/2018 13:00 655.62 0.00 81.3 57.0 --
06/30/2018 12:00 655.62 0.00 80.0 60.0 --
06/30/2018 11:00 655.63 0.00 74.7 77.0 --
06/30/2018 10:00 655.62 0.00 68.4 99.0 --
06/30/2018 09:00 655.63 0.00 66.1 100.0 --
06/30/2018 08:00 655.63 0.00 65.4 100.0 --
06/30/2018 07:00 655.63 0.00 65.4 100.0 --
06/30/2018 06:00 655.63 0.00 65.5 100.0 --
06/30/2018 05:00 655.63 0.00 65.4 100.0 --
06/30/2018 04:00 655.63 0.00 66.4 100.0 --
06/30/2018 03:00 655.64 0.00 67.5 100.0 --
06/30/2018 02:00 655.63 0.00 68.3 94.0 --
06/30/2018 01:00 655.64 0.00 70.0 91.0 --
06/30/2018 00:00 655.64 0.00 72.4 89.0 --
06/29/2018 23:00 655.63 0.00 72.9 86.0 --
06/29/2018 22:00 655.64 0.00 73.4 83.0 --
06/29/2018 21:00 655.64 0.00 73.4 83.0 --
06/29/2018 20:00 655.65 0.00 81.3 59.0 --
06/29/2018 19:00 655.65 0.00 84.8 45.0 --
06/29/2018 18:00 655.65 0.00 84.7 51.0 --
06/29/2018 17:00 655.66 0.00 81.5 68.0 --
06/29/2018 16:00 655.66 0.00 81.5 68.0 --
06/29/2018 15:00 655.66 0.00 81.2 60.0 --
06/29/2018 14:00 655.66 0.00 78.1 68.0 --
06/29/2018 13:00 655.65 0.00 76.4 72.0 --
06/29/2018 12:00 655.66 0.00 73.2 82.0 --
06/29/2018 11:00 655.66 0.00 73.2 82.0 --
06/29/2018 10:00 655.67 0.00 71.6 95.0 --
06/29/2018 09:00 655.67 0.00 64.7 100.0 --
06/29/2018 08:00 655.67 0.00 63.4 100.0 --
06/29/2018 07:00 655.67 0.00 63.6 100.0 --
06/29/2018 06:00 655.67 0.00 64.7 100.0 --
06/29/2018 05:00 655.67 0.00 65.8 100.0 --
06/29/2018 04:00 655.67 0.00 66.4 100.0 --
06/29/2018 03:00 655.68 0.00 66.6 100.0 --
06/29/2018 02:00 655.68 0.00 66.6 100.0 --
06/29/2018 01:00 655.68 0.00 66.6 100.0 --
06/29/2018 00:00 655.67 0.00 67.5 100.0 --
06/28/2018 23:00 655.67 0.00 69.0 100.0 --
06/28/2018 22:00 655.67 0.00 70.8 100.0 --
06/28/2018 21:00 655.67 0.00 71.1 100.0 --
06/28/2018 20:00 655.67 0.00 71.1 100.0 --
06/28/2018 19:00 655.67 0.05 71.5 100.0 --
06/28/2018 18:00 655.64 0.03 72.1 100.0 --
06/28/2018 17:00 655.64 0.01 71.0 100.0 --
06/28/2018 16:00 655.65 0.05 69.8 100.0 --
06/28/2018 15:00 655.64 0.03 69.3 100.0 --
06/28/2018 14:00 655.62 0.01 70.2 100.0 --
06/28/2018 13:00 655.62 0.05 68.3 100.0 --
06/28/2018 12:00 655.63 0.05 67.3 100.0 --
06/28/2018 11:00 655.61 0.00 65.0 100.0 --
06/28/2018 10:00 655.61 0.06 65.0 100.0 --
06/28/2018 09:00 655.61 0.11 64.8 100.0 --
06/28/2018 08:00 655.60 0.03 62.6 100.0 --
06/28/2018 07:00 655.59 0.00 62.3 100.0 --
06/28/2018 06:00 655.59 0.00 61.1 100.0 --
06/28/2018 05:00 655.59 0.05 60.7 100.0 --
06/28/2018 04:00 655.58 0.01 60.2 100.0 --
06/28/2018 03:00 655.59 0.18 60.2 100.0 --
06/28/2018 02:00 655.58 0.15 60.6 100.0 --
06/28/2018 01:00 655.55 0.10 61.8 100.0 --
06/28/2018 00:00 655.55 0.07 63.1 95.0 --
06/27/2018 23:00 655.54 0.02 64.3 95.0 --
06/27/2018 22:00 655.54 0.00 69.3 70.0 --
06/27/2018 21:00 655.54 0.00 69.3 70.0 --
06/27/2018 20:00 655.55 0.00 69.9 66.0 --
06/27/2018 19:00 655.54 0.00 70.7 65.0 --
06/27/2018 18:00 655.55 0.00 71.2 61.0 --
06/27/2018 17:00 655.56 0.00 72.5 59.0 --
06/27/2018 16:00 655.54 0.00 72.0 57.0 --
06/27/2018 15:00 655.55 0.00 71.8 59.0 --
06/27/2018 14:00 655.55 0.00 71.8 59.0 --
06/27/2018 13:00 655.54 0.00 70.7 62.0 --
06/27/2018 12:00 655.56 0.00 67.6 73.0 --
06/27/2018 11:00 655.56 0.00 65.3 77.0 --
06/27/2018 10:00 655.56 0.00 63.4 80.0 --
06/27/2018 09:00 655.56 0.00 63.4 80.0 --
06/27/2018 08:00 655.55 0.00 62.7 83.0 --
06/27/2018 07:00 655.56 0.00 61.2 82.0 --
06/27/2018 06:00 655.56 0.00 61.3 81.0 --
06/27/2018 05:00 655.56 0.00 61.3 79.0 --
06/27/2018 04:00 655.55 0.00 59.0 82.0 --
06/27/2018 03:00 655.55 0.00 58.8 79.0 --
06/27/2018 02:00 655.55 0.00 58.3 85.0 --
06/27/2018 01:00 655.55 0.00 59.2 81.0 --
06/27/2018 00:00 655.54 0.00 60.6 77.0 --
06/26/2018 23:00 655.54 0.00 60.6 77.0 --
06/26/2018 22:00 655.55 0.00 62.8 68.0 --
06/26/2018 21:00 655.56 0.00 74.9 37.0 --
06/26/2018 20:00 655.56 0.00 75.5 30.0 --
06/26/2018 19:00 655.57 0.00 75.0 34.0 --
06/26/2018 18:00 655.57 0.00 75.0 34.0 --
06/26/2018 17:00 655.55 0.00 74.8 26.0 --
06/26/2018 16:00 655.57 0.00 72.3 29.0 --
06/26/2018 15:00 655.57 0.00 71.2 27.0 --
06/26/2018 14:00 655.57 0.00 70.0 30.0 --
06/26/2018 13:00 655.56 0.00 68.5 32.0 --
06/26/2018 12:00 655.56 0.00 66.2 38.0 --
06/26/2018 11:00 655.57 0.00 63.3 49.0 --
06/26/2018 10:00 655.57 0.00 56.0 70.0 --
06/26/2018 09:00 655.57 0.00 50.7 87.0 --
06/26/2018 08:00 655.56 0.00 47.5 100.0 --
06/26/2018 07:00 655.58 0.00 47.7 100.0 --
06/26/2018 06:00 655.56 0.00 48.2 98.0 --
06/26/2018 05:00 655.56 0.00 48.2 98.0 --
06/26/2018 04:00 655.57 0.00 48.6 98.0 --
06/26/2018 03:00 655.57 0.00 51.0 89.0 --
06/26/2018 02:00 655.57 0.00 52.4 81.0 --
06/26/2018 01:00 655.58 0.00 52.7 72.0 --
06/26/2018 00:00 655.58 0.00 52.7 72.0 --
06/25/2018 23:00 655.57 0.00 56.8 61.0 --
06/25/2018 22:00 655.56 0.00 65.9 39.0 --
06/25/2018 21:00 655.58 0.00 67.8 33.0 --
06/25/2018 20:00 655.58 0.00 69.2 35.0 --
06/25/2018 19:00 655.58 0.00 69.2 35.0 --
06/25/2018 18:00 655.60 0.00 69.9 34.0 --
06/25/2018 17:00 655.62 0.00 69.9 41.0 --
06/25/2018 16:00 655.60 0.00 70.7 39.0 --
06/25/2018 15:00 655.60 0.00 68.7 47.0 --
06/25/2018 14:00 655.60 0.00 68.7 47.0 --
06/25/2018 13:00 655.62 0.00 67.9 47.0 --
06/25/2018 12:00 655.57 0.00 64.2 63.0 --
06/25/2018 11:00 655.58 0.00 62.2 72.0 --
06/25/2018 10:00 655.60 0.00 62.7 93.0 --
06/25/2018 09:00 655.60 0.00 60.9 100.0 --
06/25/2018 08:00 655.60 0.00 59.4 100.0 --
06/25/2018 07:00 655.60 0.00 59.4 100.0 --
06/25/2018 06:00 655.59 0.01 61.9 100.0 --
06/25/2018 05:00 655.59 0.00 61.8 100.0 --
06/25/2018 04:00 655.59 0.00 61.8 100.0 --
06/25/2018 03:00 655.59 0.04 61.9 100.0 --
06/25/2018 02:00 655.58 0.01 63.2 100.0 --
06/25/2018 01:00 655.58 0.16 63.5 100.0 --
06/25/2018 00:00 655.58 0.01 64.2 100.0 --
06/24/2018 23:00 655.58 0.00 65.7 100.0 --
06/24/2018 22:00 655.57 0.00 67.6 100.0 --
06/24/2018 21:00 655.57 0.00 67.6 100.0 --
06/24/2018 20:00 655.57 0.03 68.0 100.0 --
06/24/2018 19:00 655.57 0.00 69.7 100.0 --
06/24/2018 18:00 655.57 0.00 69.7 100.0 --
06/24/2018 17:00 655.56 0.00 73.4 78.0 --
06/24/2018 16:00 655.57 0.00 74.4 69.0 --
06/24/2018 15:00 655.57 0.00 73.0 74.0 --
06/24/2018 14:00 655.57 0.00 68.8 87.0 --
06/24/2018 13:00 655.57 0.00 67.4 97.0 --
06/24/2018 12:00 655.56 0.00 63.8 95.0 --
06/24/2018 11:00 655.57 0.00 59.9 100.0 --
06/24/2018 10:00 655.57 0.00 57.4 100.0 --
06/24/2018 09:00 655.57 0.00 57.4 100.0 --
06/24/2018 08:00 655.57 0.00 54.1 100.0 --
06/24/2018 07:00 655.57 0.00 53.5 100.0 --
06/24/2018 06:00 655.57 0.00 52.7 100.0 --
06/24/2018 05:00 655.57 0.00 52.9 100.0 --
06/24/2018 04:00 655.57 0.00 52.9 100.0 --
06/24/2018 03:00 655.58 0.00 52.9 100.0 --
06/24/2018 02:00 655.57 0.00 52.9 100.0 --
06/24/2018 01:00 655.56 0.00 53.8 100.0 --
06/24/2018 00:00 655.56 0.00 53.6 100.0 --
06/23/2018 23:00 655.57 0.00 53.7 100.0 --
06/23/2018 22:00 655.56 0.00 53.6 100.0 --
06/23/2018 21:00 655.57 0.00 54.0 100.0 --
06/23/2018 20:00 655.57 0.01 54.0 100.0 --
06/23/2018 19:00 655.57 0.02 54.6 100.0 --
06/23/2018 18:00 655.56 0.01 54.2 100.0 --
06/23/2018 17:00 655.58 0.02 54.5 100.0 --
06/23/2018 16:00 655.56 0.01 57.2 100.0 --
06/23/2018 15:00 655.56 0.01 57.8 100.0 --
06/23/2018 14:00 655.56 0.04 56.6 92.0 --
06/23/2018 13:00 655.56 0.00 60.6 78.0 --
06/23/2018 12:00 655.56 0.00 60.2 81.0 --
06/23/2018 11:00 655.56 0.00 57.7 93.0 --
06/23/2018 10:00 655.56 0.00 56.5 100.0 --
06/23/2018 09:00 655.56 0.00 55.2 100.0 --
06/23/2018 08:00 655.55 0.01 54.8 100.0 --
06/23/2018 07:00 655.55 0.00 54.5 99.0 --
06/23/2018 06:00 655.55 0.00 54.7 98.0 --
06/23/2018 05:00 655.55 0.00 54.7 98.0 --
06/23/2018 04:00 655.55 0.00 55.4 97.0 --
06/23/2018 03:00 655.54 0.00 59.0 95.0 --
06/23/2018 02:00 655.56 0.00 57.5 96.0 --
06/23/2018 01:00 655.55 0.00 58.0 84.0 --
06/23/2018 00:00 655.55 0.00 58.0 84.0 --
06/22/2018 23:00 655.55 0.00 60.7 76.0 --
06/22/2018 22:00 655.55 0.00 64.4 66.0 --
06/22/2018 21:00 655.56 0.00 69.1 54.0 --
06/22/2018 20:00 655.55 0.00 74.8 42.0 --
06/22/2018 19:00 655.55 0.00 75.6 39.0 --
06/22/2018 18:00 655.56 0.00 76.0 36.0 --
06/22/2018 17:00 655.56 0.00 74.6 40.0 --
06/22/2018 16:00 655.55 0.00 73.1 42.0 --
06/22/2018 15:00 655.55 0.00 70.3 43.0 --
06/22/2018 14:00 655.56 0.00 68.7 51.0 --
06/22/2018 13:00 655.56 0.00 66.5 49.0 --
06/22/2018 12:00 655.56 0.00 66.5 49.0 --
06/22/2018 11:00 655.55 0.00 64.2 51.0 --
06/22/2018 10:00 655.55 0.00 57.5 74.0 --
06/22/2018 09:00 655.55 0.00 57.5 74.0 --
06/22/2018 08:00 655.56 0.00 50.4 88.0 --
06/22/2018 07:00 655.56 0.00 49.1 93.0 --
06/22/2018 06:00 655.56 0.00 50.0 91.0 --
06/22/2018 05:00 655.55 0.00 48.4 93.0 --
06/22/2018 04:00 655.55 0.00 48.4 93.0 --
06/22/2018 03:00 655.56 0.00 50.7 85.0 --
06/22/2018 02:00 655.55 0.00 54.2 74.0 --
06/22/2018 01:00 655.55 0.00 59.3 61.0 --
06/22/2018 00:00 655.54 0.00 61.1 60.0 --
06/21/2018 23:00 655.54 0.00 64.3 48.0 --
06/21/2018 22:00 655.54 0.00 69.4 41.0 --
06/21/2018 21:00 655.54 0.00 69.4 41.0 --
06/21/2018 20:00 655.55 0.00 76.2 27.0 --
06/21/2018 19:00 655.54 0.00 76.7 32.0 --
06/21/2018 18:00 655.54 0.00 76.1 40.0 --
06/21/2018 17:00 655.56 0.00 74.0 46.0 --
06/21/2018 16:00 655.55 0.00 71.9 56.0 --
06/21/2018 15:00 655.55 0.00 71.0 63.0 --
06/21/2018 14:00 655.55 0.00 72.0 58.0 --
06/21/2018 13:00 655.55 0.00 72.0 58.0 --
06/21/2018 12:00 655.55 0.00 69.7 63.0 --
06/21/2018 11:00 655.55 0.00 68.2 65.0 --
06/21/2018 10:00 655.55 0.00 66.4 72.0 --
06/21/2018 09:00 655.55 0.00 60.5 84.0 --
06/21/2018 08:00 655.56 0.00 59.8 82.0 --
06/21/2018 07:00 655.56 0.00 60.2 79.0 --
06/21/2018 06:00 655.56 0.00 60.1 74.0 --
06/21/2018 05:00 655.56 0.00 60.2 76.0 --
06/21/2018 04:00 655.55 0.00 59.4 84.0 --
06/21/2018 03:00 655.55 0.00 59.4 84.0 --
06/21/2018 02:00 655.56 0.00 57.0 93.0 --
06/21/2018 01:00 655.55 0.00 58.7 93.0 --
06/21/2018 00:00 655.56 0.00 62.2 82.0 --
06/20/2018 23:00 655.56 0.00 63.8 75.0 --
06/20/2018 22:00 655.55 0.00 69.3 60.0 --
06/20/2018 21:00 655.56 0.00 73.6 43.0 --
06/20/2018 20:00 655.55 0.00 74.8 37.0 --
06/20/2018 19:00 655.56 0.00 75.9 35.0 --
06/20/2018 18:00 655.57 0.00 75.5 47.0 --
06/20/2018 17:00 655.57 0.00 75.5 47.0 --
06/20/2018 16:00 655.57 0.00 73.7 45.0 --
06/20/2018 15:00 655.56 0.00 72.9 39.0 --
06/20/2018 14:00 655.58 0.00 73.2 44.0 --
06/20/2018 13:00 655.57 0.00 70.9 45.0 --
06/20/2018 12:00 655.57 0.00 70.2 50.0 --
06/20/2018 11:00 655.57 0.00 65.5 66.0 --
06/20/2018 10:00 655.57 0.00 60.1 72.0 --
06/20/2018 09:00 655.57 0.00 54.0 95.0 --
06/20/2018 08:00 655.57 0.00 52.1 100.0 --
06/20/2018 07:00 655.57 0.00 52.1 100.0 --
06/20/2018 06:00 655.58 0.00 52.7 100.0 --
06/20/2018 05:00 655.57 0.00 55.4 91.0 --
06/20/2018 04:00 655.57 0.00 56.3 88.0 --
06/20/2018 03:00 655.58 0.00 57.7 84.0 --
06/20/2018 02:00 655.58 0.00 57.7 84.0 --
06/20/2018 01:00 655.56 0.00 58.8 78.0 --
06/20/2018 00:00 655.57 0.00 58.4 78.0 --
06/19/2018 23:00 655.57 0.00 60.1 71.0 --
06/19/2018 22:00 655.57 0.00 69.3 50.0 --
06/19/2018 21:00 655.57 0.00 69.3 50.0 --
06/19/2018 20:00 655.57 0.00 72.0 44.0 --
06/19/2018 19:00 655.57 0.00 73.7 37.0 --
06/19/2018 18:00 655.57 0.00 74.3 39.0 --
06/19/2018 17:00 655.59 0.00 71.9 47.0 --
06/19/2018 16:00 655.58 0.00 71.1 51.0 --
06/19/2018 15:00 655.58 0.00 70.8 53.0 --
06/19/2018 14:00 655.58 0.00 69.1 54.0 --
06/19/2018 13:00 655.61 0.00 68.9 57.0 --
06/19/2018 12:00 655.58 0.00 68.9 57.0 --
06/19/2018 11:00 655.57 0.00 68.5 69.0 --
06/19/2018 10:00 655.58 0.00 66.8 89.0 --
06/19/2018 09:00 655.58 0.00 66.8 89.0 --
06/19/2018 08:00 655.58 0.00 66.2 88.0 --
06/19/2018 07:00 655.58 0.00 68.3 100.0 --
06/19/2018 06:00 655.57 0.00 68.2 100.0 --
06/19/2018 05:00 655.61 0.00 72.8 98.0 --
06/19/2018 04:00 655.61 0.04 72.8 98.0 --
06/19/2018 03:00 655.59 0.00 75.8 82.0 --
06/19/2018 02:00 655.58 0.00 74.7 90.0 --
06/19/2018 01:00 655.59 0.00 74.7 93.0 --
06/19/2018 00:00 655.58 0.00 73.9 97.0 --
06/18/2018 23:00 655.58 0.00 73.9 97.0 --
06/18/2018 22:00 655.56 0.00 73.3 100.0 --
06/18/2018 21:00 655.61 0.29 72.7 100.0 --
06/18/2018 20:00 655.63 0.03 76.7 79.0 --
06/18/2018 19:00 655.56 0.00 85.9 59.0 --
06/18/2018 18:00 655.56 0.00 85.9 59.0 --
06/18/2018 17:00 655.57 0.00 86.2 60.0 --
06/18/2018 16:00 655.56 0.00 86.2 58.0 --
06/18/2018 15:00 655.56 0.00 84.0 60.0 --
06/18/2018 14:00 655.56 0.00 82.8 57.0 --
06/18/2018 13:00 655.56 0.00 82.8 57.0 --
06/18/2018 12:00 655.56 0.00 80.3 61.0 --
06/18/2018 11:00 655.56 0.00 77.5 63.0 --
06/18/2018 10:00 655.56 0.00 75.6 62.0 --
06/18/2018 09:00 655.56 0.00 70.4 68.0 --
06/18/2018 08:00 655.55 0.00 70.2 62.0 --
06/18/2018 07:00 655.56 0.00 70.1 61.0 --
06/18/2018 06:00 655.56 0.00 70.1 61.0 --
06/18/2018 05:00 655.55 0.00 70.0 63.0 --
06/18/2018 04:00 655.55 0.00 61.3 85.0 --
06/18/2018 03:00 655.55 0.00 62.2 81.0 --
06/18/2018 02:00 655.56 0.00 64.1 74.0 --
06/18/2018 01:00 655.56 0.00 64.1 74.0 --
06/18/2018 00:00 655.55 0.00 69.1 58.0 --
06/17/2018 23:00 655.56 0.00 72.2 55.0 --
06/17/2018 22:00 655.55 0.00 76.1 47.0 --
06/17/2018 21:00 655.55 0.00 78.4 48.0 --
06/17/2018 20:00 655.55 0.00 78.4 48.0 --
06/17/2018 19:00 655.55 0.00 81.5 52.0 --
06/17/2018 18:00 655.56 0.00 84.6 24.0 --
06/17/2018 17:00 655.56 0.00 84.2 25.0 --
06/17/2018 16:00 655.56 0.00 81.3 29.0 --
06/17/2018 15:00 655.56 0.00 81.3 29.0 --
06/17/2018 14:00 655.57 0.00 80.1 30.0 --
06/17/2018 13:00 655.57 0.00 78.1 40.0 --
06/17/2018 12:00 655.57 0.00 73.1 57.0 --
06/17/2018 11:00 655.57 0.00 68.2 67.0 --
06/17/2018 10:00 655.57 0.00 68.2 67.0 --
06/17/2018 09:00 655.56 0.00 60.8 81.0 --
06/17/2018 08:00 655.57 0.00 54.8 99.0 --
06/17/2018 07:00 655.56 0.00 55.4 97.0 --
06/17/2018 06:00 655.56 0.00 56.1 92.0 --
06/17/2018 05:00 655.56 0.00 56.1 92.0 --
06/17/2018 04:00 655.56 0.00 56.4 92.0 --
06/17/2018 03:00 655.56 0.00 57.7 85.0 --
06/17/2018 02:00 655.56 0.00 60.5 80.0 --
06/17/2018 01:00 655.56 0.00 61.8 79.0 --
06/17/2018 00:00 655.56 0.00 63.2 73.0 --
06/16/2018 23:00 655.55 0.00 65.9 70.0 --
06/16/2018 22:00 655.56 0.00 70.1 56.0 --
06/16/2018 21:00 655.57 0.00 77.6 35.0 --
06/16/2018 20:00 655.56 0.00 78.9 34.0 --
06/16/2018 19:00 655.56 0.00 78.9 34.0 --
06/16/2018 18:00 655.56 0.00 77.6 33.0 --
06/16/2018 17:00 655.56 0.00 77.6 36.0 --
06/16/2018 16:00 655.56 0.00 77.0 37.0 --
06/16/2018 15:00 655.57 0.00 75.1 37.0 --
06/16/2018 14:00 655.56 0.00 73.2 42.0 --
06/16/2018 13:00 655.57 0.00 72.5 41.0 --
06/16/2018 12:00 655.57 0.00 72.5 41.0 --
06/16/2018 11:00 655.56 0.00 70.1 48.0 --
06/16/2018 10:00 655.56 0.00 63.9 69.0 --
06/16/2018 09:00 655.56 0.00 63.9 69.0 --
06/16/2018 08:00 655.57 0.00 58.1 74.0 --
06/16/2018 07:00 655.56 0.00 52.1 100.0 --
06/16/2018 06:00 655.57 0.00 51.7 100.0 --
06/16/2018 05:00 655.57 0.00 52.0 100.0 --
06/16/2018 04:00 655.56 0.00 52.7 100.0 --
06/16/2018 03:00 655.57 0.00 53.6 95.0 --
06/16/2018 02:00 655.57 0.00 54.2 95.0 --
06/16/2018 01:00 655.57 0.00 55.5 96.0 --
06/16/2018 00:00 655.56 0.00 57.5 87.0 --
06/15/2018 23:00 655.57 0.00 59.3 88.0 --
06/15/2018 22:00 655.55 0.00 63.2 70.0 --
06/15/2018 21:00 655.57 0.00 70.9 42.0 --
06/15/2018 20:00 655.57 0.00 69.6 41.0 --
06/15/2018 19:00 655.57 0.00 67.3 52.0 --
06/15/2018 18:00 655.57 0.00 64.7 63.0 --
06/15/2018 17:00 655.56 0.00 61.8 70.0 --
06/15/2018 16:00 655.57 0.00 60.6 72.0 --
06/15/2018 15:00 655.56 0.00 58.4 76.0 --
06/15/2018 14:00 655.56 0.00 58.2 75.0 --
06/15/2018 13:00 655.56 0.00 58.2 75.0 --
06/15/2018 12:00 655.56 0.00 57.3 81.0 --
06/15/2018 11:00 655.57 0.00 57.1 82.0 --
06/15/2018 10:00 655.56 0.00 56.6 89.0 --
06/15/2018 09:00 655.57 0.01 55.6 100.0 --
06/15/2018 08:00 655.56 0.04 56.0 100.0 --
06/15/2018 07:00 655.56 0.00 57.2 100.0 --
06/15/2018 06:00 655.56 0.00 57.2 100.0 --
06/15/2018 05:00 655.56 0.00 58.1 91.0 --
06/15/2018 04:00 655.55 0.00 60.5 79.0 --
06/15/2018 03:00 655.55 0.00 60.5 79.0 --
06/15/2018 02:00 655.55 0.00 61.6 75.0 --
06/15/2018 01:00 655.56 0.00 62.4 74.0 --
06/15/2018 00:00 655.56 0.00 63.3 71.0 --
06/14/2018 23:00 655.56 0.00 64.2 69.0 --
06/14/2018 22:00 655.56 0.00 65.0 69.0 --
06/14/2018 21:00 655.55 0.00 65.2 67.0 --
06/14/2018 20:00 655.56 0.00 65.9 64.0 --
06/14/2018 19:00 655.57 0.00 67.0 62.0 --
06/14/2018 18:00 655.53 0.00 65.6 63.0 --
06/14/2018 17:00 655.53 0.00 65.6 63.0 --
06/14/2018 16:00 655.57 0.00 66.4 62.0 --
06/14/2018 15:00 655.58 0.00 67.8 57.0 --
06/14/2018 14:00 655.56 0.00 69.0 56.0 --
06/14/2018 13:00 655.60 0.00 69.3 52.0 --
06/14/2018 12:00 655.58 0.00 68.6 54.0 --
06/14/2018 11:00 655.59 0.00 67.6 58.0 --
06/14/2018 10:00 655.59 0.00 67.6 58.0 --
06/14/2018 09:00 655.60 0.01 66.3 63.0 --
06/14/2018 08:00 655.57 0.00 65.2 64.0 --
06/14/2018 07:00 655.57 0.00 65.2 64.0 --
06/14/2018 06:00 655.56 0.00 65.2 69.0 --
06/14/2018 05:00 655.58 0.00 64.2 80.0 --
06/14/2018 04:00 655.55 0.00 62.3 100.0 --
06/14/2018 03:00 655.56 0.00 68.8 90.0 --
06/14/2018 02:00 655.57 0.00 68.5 92.0 --
06/14/2018 01:00 655.55 0.00 67.9 94.0 --
06/14/2018 00:00 655.55 0.00 67.9 94.0 --
06/13/2018 23:00 655.56 0.00 67.0 99.0 --
06/13/2018 22:00 655.57 0.00 68.8 86.0 --
06/13/2018 21:00 655.57 0.00 68.6 86.0 --
06/13/2018 20:00 655.57 0.00 68.8 85.0 --
06/13/2018 19:00 655.57 0.00 68.8 85.0 --
06/13/2018 18:00 655.56 0.00 68.6 88.0 --
06/13/2018 17:00 655.55 0.00 66.3 96.0 --
06/13/2018 16:00 655.55 0.00 66.3 96.0 --
06/13/2018 15:00 655.56 0.01 66.3 93.0 --
06/13/2018 14:00 655.56 0.03 65.2 92.0 --
06/13/2018 13:00 655.55 0.00 71.0 61.0 --
06/13/2018 12:00 655.56 0.00 72.8 55.0 --
06/13/2018 11:00 655.55 0.00 69.1 59.0 --
06/13/2018 10:00 655.55 0.00 62.8 63.0 --
06/13/2018 09:00 655.55 0.00 57.5 77.0 --
06/13/2018 08:00 655.55 0.00 56.4 77.0 --
06/13/2018 07:00 655.55 0.00 60.9 65.0 --
06/13/2018 06:00 655.56 0.00 62.1 62.0 --
06/13/2018 05:00 655.56 0.00 62.2 61.0 --
06/13/2018 04:00 655.56 0.00 62.2 61.0 --
06/13/2018 03:00 655.56 0.00 62.9 61.0 --
06/13/2018 02:00 655.55 0.00 65.0 56.0 --
06/13/2018 01:00 655.55 0.00 66.8 57.0 --
06/13/2018 00:00 655.55 0.00 69.9 50.0 --
06/12/2018 23:00 655.55 0.00 69.9 50.0 --
06/12/2018 22:00 655.55 0.00 71.5 47.0 --
06/12/2018 21:00 655.56 0.00 73.7 45.0 --
06/12/2018 20:00 655.57 0.00 75.8 36.0 --
06/12/2018 19:00 655.54 0.00 77.2 33.0 --
06/12/2018 18:00 655.54 0.00 77.2 33.0 --
06/12/2018 17:00 655.55 0.00 76.1 38.0 --
06/12/2018 16:00 655.59 0.00 73.8 48.0 --
06/12/2018 15:00 655.55 0.00 72.9 48.0 --
06/12/2018 14:00 655.58 0.00 70.4 52.0 --
06/12/2018 13:00 655.58 0.00 70.4 52.0 --
06/12/2018 12:00 655.55 0.00 69.0 54.0 --
06/12/2018 11:00 655.58 0.00 66.1 57.0 --
06/12/2018 10:00 655.56 0.00 62.8 59.0 --
06/12/2018 09:00 655.57 0.00 52.6 76.0 --
06/12/2018 08:00 655.56 0.00 52.6 72.0 --
06/12/2018 07:00 655.57 0.00 54.0 67.0 --
06/12/2018 06:00 655.57 0.00 54.9 66.0 --
06/12/2018 05:00 655.57 0.00 56.0 67.0 --
06/12/2018 04:00 655.57 0.00 56.2 66.0 --
06/12/2018 03:00 655.57 0.00 56.2 66.0 --
06/12/2018 02:00 655.58 0.00 57.2 64.0 --
06/12/2018 01:00 655.57 0.00 57.2 66.0 --
06/12/2018 00:00 655.58 0.00 56.3 65.0 --
06/11/2018 23:00 655.57 0.00 60.9 53.0 --
06/11/2018 22:00 655.56 0.00 63.5 49.0 --
06/11/2018 21:00 655.57 0.00 69.6 45.0 --
06/11/2018 20:00 655.57 0.00 69.6 45.0 --
06/11/2018 19:00 655.58 0.00 70.1 40.0 --
06/11/2018 18:00 655.57 0.00 70.3 38.0 --
06/11/2018 17:00 655.57 0.00 67.5 40.0 --
06/11/2018 16:00 655.57 0.00 65.6 46.0 --
06/11/2018 15:00 655.57 0.00 65.6 46.0 --
06/11/2018 14:00 655.58 0.00 64.2 50.0 --
06/11/2018 13:00 655.57 0.00 61.7 56.0 --
06/11/2018 12:00 655.57 0.00 61.7 56.0 --
06/11/2018 11:00 655.58 0.00 60.4 63.0 --
06/11/2018 10:00 655.57 0.00 56.0 67.0 --
06/11/2018 09:00 655.57 0.00 52.6 72.0 --
06/11/2018 08:00 655.57 0.00 49.5 74.0 --
06/11/2018 07:00 655.57 0.00 49.5 74.0 --
06/11/2018 06:00 655.58 0.00 50.9 70.0 --
06/11/2018 05:00 655.57 0.00 50.9 73.0 --
06/11/2018 04:00 655.57 0.00 51.3 75.0 --
06/11/2018 03:00 655.57 0.00 49.7 82.0 --
06/11/2018 02:00 655.57 0.00 49.7 82.0 --
06/11/2018 01:00 655.57 0.00 52.4 74.0 --
06/11/2018 00:00 655.57 0.00 55.2 65.0 --
06/10/2018 23:00 655.58 0.00 57.8 59.0 --
06/10/2018 22:00 655.57 0.00 64.1 46.0 --
06/10/2018 21:00 655.57 0.00 72.6 30.0 --
06/10/2018 20:00 655.57 0.00 74.9 27.0 --
06/10/2018 19:00 655.57 0.00 72.8 23.0 --
06/10/2018 18:00 655.58 0.00 73.8 26.0 --
06/10/2018 17:00 655.58 0.00 71.1 28.0 --
06/10/2018 16:00 655.58 0.00 71.1 28.0 --
06/10/2018 15:00 655.59 0.00 69.8 29.0 --
06/10/2018 14:00 655.59 0.00 68.0 32.0 --
06/10/2018 13:00 655.58 0.00 65.4 29.0 --
06/10/2018 12:00 655.58 0.00 64.8 32.0 --
06/10/2018 11:00 655.58 0.00 64.8 32.0 --
06/10/2018 10:00 655.58 0.00 62.7 43.0 --
06/10/2018 09:00 655.59 0.00 51.2 83.0 --
06/10/2018 08:00 655.59 0.00 49.0 96.0 --
06/10/2018 07:00 655.59 0.00 48.7 97.0 --
06/10/2018 06:00 655.59 0.00 48.7 97.0 --
06/10/2018 05:00 655.59 0.00 49.7 94.0 --
06/10/2018 04:00 655.58 0.00 51.6 87.0 --
06/10/2018 03:00 655.59 0.00 54.0 84.0 --
06/10/2018 02:00 655.58 0.00 57.6 76.0 --
06/10/2018 01:00 655.58 0.00 58.8 70.0 --
06/10/2018 00:00 655.58 0.00 60.0 78.0 --
06/09/2018 23:00 655.58 0.00 62.6 78.0 --
06/09/2018 22:00 655.58 0.00 67.4 70.0 --
06/09/2018 21:00 655.59 0.00 70.1 61.0 --
06/09/2018 20:00 655.59 0.00 70.1 61.0 --
06/09/2018 19:00 655.59 0.00 72.8 45.0 --
06/09/2018 18:00 655.59 0.00 74.1 38.0 --
06/09/2018 17:00 655.60 0.00 73.8 37.0 --
06/09/2018 16:00 655.61 0.00 72.4 39.0 --
06/09/2018 15:00 655.61 0.00 72.4 39.0 --
06/09/2018 14:00 655.59 0.00 71.8 37.0 --
06/09/2018 13:00 655.59 0.00 71.0 37.0 --
06/09/2018 12:00 655.60 0.00 69.2 42.0 --
06/09/2018 11:00 655.60 0.00 64.8 64.0 --
06/09/2018 10:00 655.60 0.00 64.8 64.0 --
06/09/2018 09:00 655.60 0.00 57.9 71.0 --
06/09/2018 08:00 655.61 0.00 49.7 96.0 --
06/09/2018 07:00 655.59 0.00 50.7 88.0 --
06/09/2018 06:00 655.59 0.00 53.1 93.0 --
06/09/2018 05:00 655.59 0.00 53.1 93.0 --
06/09/2018 04:00 655.60 0.00 54.1 96.0 --
06/09/2018 03:00 655.60 0.00 56.8 89.0 --
06/09/2018 02:00 655.60 0.00 56.6 86.0 --
06/09/2018 01:00 655.60 0.00 58.4 86.0 --
06/09/2018 00:00 655.60 0.00 58.4 86.0 --
06/08/2018 23:00 655.60 0.00 59.4 82.0 --
06/08/2018 22:00 655.59 0.00 66.3 66.0 --
06/08/2018 21:00 655.59 0.00 73.1 45.0 --
06/08/2018 20:00 655.60 0.00 74.5 43.0 --
06/08/2018 19:00 655.60 0.00 74.5 43.0 --
06/08/2018 18:00 655.60 0.00 74.0 43.0 --
06/08/2018 17:00 655.60 0.00 73.8 46.0 --
06/08/2018 16:00 655.60 0.00 71.8 52.0 --
06/08/2018 15:00 655.60 0.00 71.5 55.0 --
06/08/2018 14:00 655.60 0.00 71.5 55.0 --
06/08/2018 13:00 655.59 0.00 72.0 51.0 --
06/08/2018 12:00 655.60 0.00 70.6 55.0 --
06/08/2018 11:00 655.61 0.00 68.6 61.0 --
06/08/2018 10:00 655.61 0.00 60.6 80.0 --
06/08/2018 09:00 655.62 0.00 56.6 99.0 --
06/08/2018 08:00 655.61 0.00 51.9 100.0 --
06/08/2018 07:00 655.61 0.00 51.9 100.0 --
06/08/2018 06:00 655.61 0.00 52.5 100.0 --
06/08/2018 05:00 655.61 0.00 58.3 88.0 --
06/08/2018 04:00 655.60 0.00 55.6 96.0 --
06/08/2018 03:00 655.61 0.00 60.5 79.0 --
06/08/2018 02:00 655.62 0.00 62.4 77.0 --
06/08/2018 01:00 655.60 0.00 63.5 76.0 --
06/08/2018 00:00 655.62 0.00 63.9 73.0 --
06/07/2018 23:00 655.61 0.00 62.2 86.0 --
06/07/2018 22:00 655.62 0.00 65.2 71.0 --
06/07/2018 21:00 655.62 0.00 65.2 71.0 --
06/07/2018 20:00 655.62 0.00 67.6 63.0 --
06/07/2018 19:00 655.62 0.00 67.2 63.0 --
06/07/2018 18:00 655.62 0.00 67.1 62.0 --
06/07/2018 17:00 655.63 0.00 66.7 57.0 --
06/07/2018 16:00 655.63 0.00 66.7 57.0 --
06/07/2018 15:00 655.62 0.00 67.2 57.0 --
06/07/2018 14:00 655.63 0.00 66.3 56.0 --
06/07/2018 13:00 655.63 0.00 66.1 66.0 --
06/07/2018 12:00 655.62 0.00 60.6 92.0 --
06/07/2018 11:00 655.62 0.00 60.6 92.0 --
06/07/2018 10:00 655.62 0.00 55.7 100.0 --
06/07/2018 09:00 655.62 0.00 52.4 100.0 --
06/07/2018 08:00 655.63 0.00 50.8 100.0 --
06/07/2018 07:00 655.63 0.00 50.0 100.0 --
06/07/2018 06:00 655.63 0.00 49.7 100.0 --
06/07/2018 05:00 655.63 0.00 49.2 100.0 --
06/07/2018 04:00 655.63 0.00 52.5 100.0 --
06/07/2018 03:00 655.63 0.00 51.5 100.0 --
06/07/2018 02:00 655.63 0.00 53.8 100.0 --
06/07/2018 01:00 655.63 0.00 53.8 100.0 --
06/07/2018 00:00 655.63 0.00 55.0 100.0 --
06/06/2018 23:00 655.62 0.00 56.2 100.0 --
06/06/2018 22:00 655.63 0.00 57.4 100.0 --
06/06/2018 21:00 655.64 0.00 60.3 93.0 --
06/06/2018 20:00 655.64 0.00 61.8 86.0 --
06/06/2018 19:00 655.62 0.00 65.3 55.0 --
06/06/2018 18:00 655.62 0.00 65.3 55.0 --
06/06/2018 17:00 655.64 0.00 64.3 56.0 --
06/06/2018 16:00 655.64 0.00 63.0 58.0 --
06/06/2018 15:00 655.63 0.00 60.7 65.0 --
06/06/2018 14:00 655.64 0.00 60.6 67.0 --
06/06/2018 13:00 655.64 0.00 60.6 67.0 --
06/06/2018 12:00 655.64 0.00 59.6 72.0 --
06/06/2018 11:00 655.64 0.00 56.1 90.0 --
06/06/2018 10:00 655.64 0.00 53.2 100.0 --
06/06/2018 09:00 655.65 0.00 47.0 100.0 --
06/06/2018 08:00 655.65 0.00 46.0 100.0 --
06/06/2018 07:00 655.64 0.00 46.3 100.0 --
06/06/2018 06:00 655.64 0.00 45.8 100.0 --
06/06/2018 05:00 655.64 0.00 45.8 100.0 --
06/06/2018 04:00 655.65 0.00 46.9 100.0 --
06/06/2018 03:00 655.65 0.00 51.1 100.0 --
06/06/2018 02:00 655.64 0.00 52.0 100.0 --
06/06/2018 01:00 655.66 0.00 52.0 100.0 --
06/06/2018 00:00 655.66 0.00 52.1 100.0 --
06/05/2018 23:00 655.66 0.00 52.9 100.0 --
06/05/2018 22:00 655.65 0.01 53.6 100.0 --
06/05/2018 21:00 655.65 0.00 55.8 100.0 --
06/05/2018 20:00 655.65 0.00 56.7 89.0 --
06/05/2018 19:00 655.65 0.00 56.7 89.0 --
06/05/2018 18:00 655.65 0.00 58.4 73.0 --
06/05/2018 17:00 655.66 0.03 58.3 93.0 --
06/05/2018 16:00 655.66 0.00 57.9 87.0 --
06/05/2018 15:00 655.65 0.00 59.7 81.0 --
06/05/2018 14:00 655.65 0.00 59.7 81.0 --
06/05/2018 13:00 655.65 0.00 56.0 94.0 --
06/05/2018 12:00 655.64 0.00 54.4 100.0 --
06/05/2018 11:00 655.65 0.00 52.3 100.0 --
06/05/2018 10:00 655.65 0.00 48.9 100.0 --
06/05/2018 09:00 655.65 0.00 48.9 100.0 --
06/05/2018 08:00 655.65 0.00 47.9 100.0 --
06/05/2018 07:00 655.66 0.00 47.6 100.0 --
06/05/2018 06:00 655.66 0.00 48.0 100.0 --
06/05/2018 05:00 655.65 0.00 46.5 100.0 --
06/05/2018 04:00 655.65 0.01 46.5 100.0 --
06/05/2018 03:00 655.65 0.00 46.3 100.0 --
06/05/2018 02:00 655.65 0.00 46.8 100.0 --
06/05/2018 01:00 655.66 0.00 47.5 100.0 --
06/05/2018 00:00 655.65 0.00 48.1 100.0 --
06/04/2018 23:00 655.65 0.01 48.1 100.0 --
06/04/2018 22:00 655.64 0.00 49.0 100.0 --
06/04/2018 21:00 655.66 0.00 48.9 100.0 --
06/04/2018 20:00 655.65 0.01 49.4 100.0 --
06/04/2018 19:00 655.65 0.01 49.9 100.0 --
06/04/2018 18:00 655.63 0.01 50.5 100.0 --
06/04/2018 17:00 655.63 0.00 49.6 100.0 --
06/04/2018 16:00 655.63 0.01 49.6 100.0 --
06/04/2018 15:00 655.63 0.02 50.2 100.0 --
06/04/2018 14:00 655.64 0.00 48.6 100.0 --
06/04/2018 13:00 655.64 0.06 48.6 100.0 --
06/04/2018 12:00 655.62 0.08 49.1 100.0 --
06/04/2018 11:00 655.62 0.04 48.3 100.0 --
06/04/2018 10:00 655.62 0.32 47.3 100.0 --
06/04/2018 09:00 655.58 0.00 46.2 100.0 --
06/04/2018 08:00 655.58 0.17 46.2 100.0 --
06/04/2018 07:00 655.58 0.07 46.0 100.0 --
06/04/2018 06:00 655.56 0.00 46.3 94.0 --
06/04/2018 05:00 655.56 0.00 47.0 84.0 --
06/04/2018 04:00 655.57 0.00 47.2 87.0 --
06/04/2018 03:00 655.57 0.00 47.2 87.0 --
06/04/2018 02:00 655.56 0.00 47.4 85.0 --
06/04/2018 01:00 655.57 0.00 46.5 82.0 --
06/04/2018 00:00 655.56 0.00 48.3 73.0 --
06/03/2018 23:00 655.57 0.00 52.0 56.0 --
06/03/2018 22:00 655.56 0.00 55.4 44.0 --
06/03/2018 21:00 655.57 0.00 59.6 43.0 --
06/03/2018 20:00 655.57 0.00 59.6 43.0 --
06/03/2018 19:00 655.58 0.00 60.6 37.0 --
06/03/2018 18:00 655.58 0.00 65.1 37.0 --
06/03/2018 17:00 655.58 0.00 65.1 48.0 --
06/03/2018 16:00 655.58 0.00 63.5 46.0 --
06/03/2018 15:00 655.58 0.00 62.9 50.0 --
06/03/2018 14:00 655.57 0.00 62.7 46.0 --
06/03/2018 13:00 655.57 0.00 61.2 44.0 --
06/03/2018 12:00 655.56 0.00 59.4 44.0 --
06/03/2018 11:00 655.58 0.00 57.8 54.0 --
06/03/2018 10:00 655.58 0.00 55.4 66.0 --
06/03/2018 09:00 655.57 0.00 50.6 100.0 --
06/03/2018 08:00 655.57 0.00 49.1 100.0 --
06/03/2018 07:00 655.58 0.00 50.1 100.0 --
06/03/2018 06:00 655.58 0.00 52.2 100.0 --
06/03/2018 05:00 655.57 0.00 54.3 99.0 --
06/03/2018 04:00 655.57 0.00 54.3 99.0 --
06/03/2018 03:00 655.56 0.00 56.5 100.0 --
06/03/2018 02:00 655.58 0.00 58.4 95.0 --
06/03/2018 01:00 655.58 0.00 60.6 84.0 --
06/03/2018 00:00 655.58 0.00 64.0 73.0 --
06/02/2018 23:00 655.58 0.00 68.4 65.0 --
06/02/2018 22:00 655.57 0.00 71.8 58.0 --
06/02/2018 21:00 655.57 0.00 71.8 58.0 --
06/02/2018 20:00 655.55 0.00 76.6 52.0 --
06/02/2018 19:00 655.58 0.00 80.2 49.0 --
06/02/2018 18:00 655.57 0.00 79.5 52.0 --
06/02/2018 17:00 655.58 0.00 78.8 53.0 --
06/02/2018 16:00 655.59 0.00 78.2 55.0 --
06/02/2018 15:00 655.58 0.00 76.6 63.0 --
06/02/2018 14:00 655.58 0.00 76.6 67.0 --
06/02/2018 13:00 655.58 0.00 75.6 72.0 --
06/02/2018 12:00 655.57 0.00 74.3 77.0 --
06/02/2018 11:00 655.57 0.00 74.3 77.0 --
06/02/2018 10:00 655.58 0.00 73.2 81.0 --
06/02/2018 09:00 655.57 0.00 72.0 87.0 --
06/02/2018 08:00 655.57 0.00 72.0 87.0 --
06/02/2018 07:00 655.57 0.00 67.9 100.0 --
06/02/2018 06:00 655.57 0.00 69.0 100.0 --
06/02/2018 05:00 655.58 0.00 68.9 100.0 --
06/02/2018 04:00 655.58 0.00 68.2 100.0 --
06/02/2018 03:00 655.58 0.00 68.4 100.0 --
06/02/2018 02:00 655.57 0.00 69.3 100.0 --
06/02/2018 01:00 655.57 0.00 69.3 100.0 --
06/02/2018 00:00 655.57 0.00 70.5 100.0 --
06/01/2018 23:00 655.58 0.00 73.2 100.0 --
06/01/2018 22:00 655.58 0.00 74.8 90.0 --
06/01/2018 21:00 655.57 0.00 78.4 77.0 --
06/01/2018 20:00 655.56 0.00 80.5 71.0 --
06/01/2018 19:00 655.56 0.00 79.1 71.0 --
06/01/2018 18:00 655.58 0.00 78.4 73.0 --
06/01/2018 17:00 655.58 0.00 78.4 73.0 --
06/01/2018 16:00 655.57 0.00 76.1 77.0 --
06/01/2018 15:00 655.57 0.00 74.5 84.0 --
06/01/2018 14:00 655.57 0.00 73.2 90.0 --
06/01/2018 13:00 655.56 0.00 72.0 90.0 --
06/01/2018 12:00 655.57 0.00 71.9 88.0 --
06/01/2018 11:00 655.56 0.00 69.5 95.0 --
06/01/2018 10:00 655.56 0.00 69.5 95.0 --
06/01/2018 09:00 655.56 0.00 68.3 99.0 --
06/01/2018 08:00 655.55 0.00 68.1 100.0 --
06/01/2018 07:00 655.56 0.00 68.2 98.0 --
06/01/2018 06:00 655.56 0.00 68.6 94.0 --
06/01/2018 05:00 655.56 0.00 68.6 94.0 --
06/01/2018 04:00 655.56 0.00 69.2 92.0 --
06/01/2018 03:00 655.55 0.00 70.3 86.0 --
06/01/2018 02:00 655.56 0.00 71.0 83.0 --
06/01/2018 01:00 655.54 0.00 71.6 80.0 --
06/01/2018 00:00 655.54 0.00 71.6 80.0 --
05/31/2018 23:00 655.56 0.00 72.0 76.0 --
05/31/2018 22:00 655.55 0.00 74.1 69.0 --
05/31/2018 21:00 655.56 0.00 75.9 63.0 --
05/31/2018 20:00 655.56 0.00 78.2 56.0 --
05/31/2018 19:00 655.56 0.00 78.2 56.0 --
05/31/2018 18:00 655.55 0.00 80.8 44.0 --
05/31/2018 17:00 655.56 0.00 80.0 40.0 --
05/31/2018 16:00 655.56 0.00 79.2 38.0 --
05/31/2018 15:00 655.55 0.00 78.1 35.0 --
05/31/2018 14:00 655.55 0.00 78.1 35.0 --
05/31/2018 13:00 655.55 0.00 75.6 36.0 --
05/31/2018 12:00 655.55 0.00 70.6 43.0 --
05/31/2018 11:00 655.55 0.00 65.9 60.0 --
05/31/2018 10:00 655.54 0.00 58.2 88.0 --
05/31/2018 09:00 655.54 0.00 58.2 88.0 --
05/31/2018 08:00 655.54 0.00 52.3 100.0 --
05/31/2018 07:00 655.54 0.00 49.0 100.0 --
05/31/2018 06:00 655.53 0.00 49.9 100.0 --
05/31/2018 05:00 655.54 0.00 51.0 100.0 --
05/31/2018 04:00 655.54 0.00 51.0 100.0 --
05/31/2018 03:00 655.54 0.00 51.5 100.0 --
05/31/2018 02:00 655.52 0.00 54.7 97.0 --
05/31/2018 01:00 655.51 0.00 56.6 89.0 --
05/31/2018 00:00 655.51 0.00 59.3 81.0 --
05/30/2018 23:00 655.51 0.00 59.3 81.0 --
05/30/2018 22:00 655.51 0.00 62.9 74.0 --
05/30/2018 21:00 655.52 0.00 71.7 50.0 --
05/30/2018 20:00 655.51 0.00 74.1 48.0 --
05/30/2018 19:00 655.51 0.00 75.9 43.0 --
05/30/2018 18:00 655.50 0.00 75.7 35.0 --
05/30/2018 17:00 655.51 0.00 74.6 34.0 --
05/30/2018 16:00 655.51 0.00 74.6 34.0 --
05/30/2018 15:00 655.51 0.00 74.0 36.0 --
05/30/2018 14:00 655.50 0.00 69.2 38.0 --
05/30/2018 13:00 655.49 0.00 69.2 36.0 --
05/30/2018 12:00 655.48 0.00 67.0 41.0 --
05/30/2018 11:00 655.48 0.00 67.0 41.0 --
05/30/2018 10:00 655.49 0.00 63.3 52.0 --
05/30/2018 09:00 655.49 0.00 51.8 100.0 --
05/30/2018 08:00 655.49 0.00 51.8 100.0 --
05/30/2018 07:00 655.48 0.00 49.6 100.0 --
05/30/2018 06:00 655.47 0.00 51.9 100.0 --
05/30/2018 05:00 655.47 0.00 53.4 99.0 --
05/30/2018 04:00 655.47 0.00 55.0 91.0 --
05/30/2018 03:00 655.46 0.00 56.1 91.0 --
05/30/2018 02:00 655.46 0.00 58.3 84.0 --
05/30/2018 01:00 655.46 0.00 58.3 84.0 --
05/30/2018 00:00 655.46 0.00 59.7 75.0 --
05/29/2018 23:00 655.46 0.00 61.6 70.0 --
05/29/2018 22:00 655.45 0.00 65.0 62.0 --
05/29/2018 21:00 655.43 0.00 78.1 38.0 --
05/29/2018 20:00 655.43 0.00 78.1 38.0 --
05/29/2018 19:00 655.44 0.00 82.8 31.0 --
05/29/2018 18:00 655.43 0.00 83.5 34.0 --
05/29/2018 17:00 655.44 0.00 82.5 32.0 --
05/29/2018 16:00 655.41 0.00 80.7 41.0 --
05/29/2018 15:00 655.41 0.00 80.7 41.0 --
05/29/2018 14:00 655.42 0.00 77.4 49.0 --
05/29/2018 13:00 655.42 0.00 77.2 55.0 --
05/29/2018 12:00 655.42 0.00 74.6 65.0 --
05/29/2018 11:00 655.40 0.00 70.9 79.0 --
05/29/2018 10:00 655.40 0.00 64.8 100.0 --
05/29/2018 09:00 655.40 0.00 60.1 100.0 --
05/29/2018 08:00 655.40 0.00 60.1 100.0 --
05/29/2018 07:00 655.39 0.00 55.6 100.0 --
05/29/2018 06:00 655.38 0.00 53.6 100.0 --
05/29/2018 05:00 655.38 0.00 54.6 100.0 --
05/29/2018 04:00 655.36 0.00 54.7 100.0 --
05/29/2018 03:00 655.37 0.00 52.9 100.0 --
05/29/2018 02:00 655.36 0.00 53.1 100.0 --
05/29/2018 01:00 655.36 0.00 54.0 100.0 --
05/29/2018 00:00 655.35 0.00 56.0 100.0 --
05/28/2018 23:00 655.35 0.00 58.2 100.0 --
05/28/2018 22:00 655.33 0.00 60.3 90.0 --
05/28/2018 21:00 655.34 0.00 63.4 79.0 --
05/28/2018 20:00 655.34 0.00 64.4 75.0 --
05/28/2018 19:00 655.33 0.00 63.0 77.0 --
05/28/2018 18:00 655.32 0.00 61.6 78.0 --
05/28/2018 17:00 655.32 0.00 59.6 82.0 --
05/28/2018 16:00 655.31 0.00 58.0 87.0 --
05/28/2018 15:00 655.32 0.00 56.0 92.0 --
05/28/2018 14:00 655.32 0.00 56.0 92.0 --
05/28/2018 13:00 655.30 0.00 53.2 99.0 --
05/28/2018 12:00 655.30 0.00 49.3 100.0 --
05/28/2018 11:00 655.28 0.00 48.1 100.0 --
05/28/2018 10:00 655.29 0.00 47.1 100.0 --
05/28/2018 09:00 655.29 0.01 47.1 100.0 --
05/28/2018 08:00 655.28 0.05 46.4 100.0 --
05/28/2018 07:00 655.27 0.02 46.2 100.0 --
05/28/2018 06:00 655.27 0.00 46.2 100.0 --
05/28/2018 05:00 655.26 0.00 46.3 100.0 --
05/28/2018 04:00 655.26 0.00 46.4 100.0 --
05/28/2018 03:00 655.25 0.00 46.4 100.0 --
05/28/2018 02:00 655.24 0.00 47.0 100.0 --
05/28/2018 01:00 655.24 0.00 47.4 100.0 --
05/28/2018 00:00 655.23 0.00 47.7 97.0 --
05/27/2018 23:00 655.23 0.01 47.7 97.0 --
05/27/2018 22:00 655.22 0.00 49.0 82.0 --
05/27/2018 21:00 655.22 0.00 51.7 72.0 --
05/27/2018 20:00 655.22 0.00 53.7 65.0 --
05/27/2018 19:00 655.21 0.00 54.4 64.0 --
05/27/2018 18:00 655.21 0.00 54.2 65.0 --
05/27/2018 17:00 655.18 0.00 54.8 66.0 --
05/27/2018 16:00 655.21 0.00 54.6 69.0 --
05/27/2018 15:00 655.21 0.00 54.6 69.0 --
05/27/2018 14:00 655.19 0.00 54.4 74.0 --
05/27/2018 13:00 655.17 0.00 53.0 80.0 --
05/27/2018 12:00 655.19 0.00 52.6 94.0 --
05/27/2018 11:00 655.16 0.00 51.8 100.0 --
05/27/2018 10:00 655.16 0.00 52.0 100.0 --
05/27/2018 09:00 655.15 0.00 53.1 100.0 --
05/27/2018 08:00 655.15 0.00 53.1 100.0 --
05/27/2018 07:00 655.14 0.00 53.3 100.0 --
05/27/2018 06:00 655.14 0.01 53.4 100.0 --
05/27/2018 05:00 655.11 0.11 59.4 100.0 --
05/27/2018 04:00 655.12 0.00 62.3 100.0 --
05/27/2018 03:00 655.12 0.36 62.3 100.0 --
05/27/2018 02:00 655.09 0.01 62.7 100.0 --
05/27/2018 01:00 655.08 0.00 65.2 87.0 --
05/27/2018 00:00 655.07 0.00 65.5 93.0 --
05/26/2018 23:00 655.08 0.00 66.9 89.0 --
05/26/2018 22:00 655.08 0.00 66.9 89.0 --
05/26/2018 21:00 655.06 0.00 68.0 84.0 --
05/26/2018 20:00 655.06 0.00 72.7 70.0 --
05/26/2018 19:00 655.06 0.00 75.8 77.0 --
05/26/2018 18:00 655.06 0.00 76.9 75.0 --
05/26/2018 17:00 655.06 0.00 75.9 73.0 --
05/26/2018 16:00 655.05 0.00 75.1 70.0 --
05/26/2018 15:00 655.05 0.00 75.1 70.0 --
05/26/2018 14:00 655.04 0.00 77.9 50.0 --
05/26/2018 13:00 655.04 0.00 76.3 44.0 --
05/26/2018 12:00 655.04 0.00 76.3 44.0 --
05/26/2018 11:00 655.04 0.00 76.1 43.0 --
05/26/2018 10:00 655.03 0.00 70.9 53.0 --
05/26/2018 09:00 655.03 0.00 67.4 61.0 --
05/26/2018 08:00 655.01 0.00 67.4 61.0 --
05/26/2018 07:00 655.01 0.00 67.4 61.0 --
05/26/2018 06:00 655.01 0.00 65.3 70.0 --
05/26/2018 05:00 655.02 0.00 72.3 47.0 --
05/26/2018 04:00 655.02 0.00 69.8 57.0 --
05/26/2018 03:00 655.02 0.00 72.5 46.0 --
05/26/2018 02:00 655.02 0.00 72.5 46.0 --
05/26/2018 01:00 654.99 0.00 75.0 41.0 --
05/26/2018 00:00 655.00 0.00 73.8 47.0 --
05/25/2018 23:00 655.00 0.00 76.8 37.0 --
05/25/2018 22:00 655.00 0.00 79.2 33.0 --
05/25/2018 21:00 655.00 0.00 80.8 30.0 --
05/25/2018 20:00 654.99 0.00 80.8 29.0 --
05/25/2018 19:00 654.99 0.00 81.9 29.0 --
05/25/2018 18:00 654.96 0.00 80.8 30.0 --
05/25/2018 17:00 654.95 0.00 81.9 27.0 --
05/25/2018 16:00 654.97 0.00 81.4 27.0 --
05/25/2018 15:00 655.04 0.00 80.5 24.0 --
05/25/2018 14:00 654.99 0.00 79.1 30.0 --
05/25/2018 13:00 654.99 0.00 75.9 40.0 --
05/25/2018 12:00 654.98 0.00 72.3 47.0 --
05/25/2018 11:00 654.98 0.00 68.7 51.0 --
05/25/2018 10:00 654.96 0.00 65.2 55.0 --
05/25/2018 09:00 654.96 0.00 61.2 61.0 --
05/25/2018 08:00 654.96 0.00 61.3 62.0 --
05/25/2018 07:00 654.95 0.00 61.0 60.0 --
05/25/2018 06:00 654.95 0.00 61.0 60.0 --
05/25/2018 05:00 654.94 0.00 60.5 64.0 --
05/25/2018 04:00 654.94 0.00 60.2 58.0 --
05/25/2018 03:00 654.93 0.00 54.3 80.0 --
05/25/2018 02:00 654.93 0.00 53.6 80.0 --
05/25/2018 01:00 654.93 0.00 53.6 80.0 --
05/25/2018 00:00 654.92 0.00 54.9 74.0 --
05/24/2018 23:00 654.92 0.00 59.6 62.0 --
05/24/2018 22:00 654.91 0.00 63.3 49.0 --
05/24/2018 21:00 654.91 0.00 73.4 29.0 --
05/24/2018 20:00 654.91 0.00 73.4 29.0 --
05/24/2018 19:00 654.90 0.00 73.2 24.0 --
05/24/2018 18:00 654.89 0.00 71.0 25.0 --
05/24/2018 17:00 654.90 0.00 69.8 23.0 --
05/24/2018 16:00 654.91 0.00 67.2 23.0 --
05/24/2018 15:00 654.84 0.00 66.7 24.0 --
05/24/2018 14:00 654.90 0.00 64.0 26.0 --
05/24/2018 13:00 654.88 0.00 62.6 27.0 --
05/24/2018 12:00 654.88 0.00 62.0 30.0 --
05/24/2018 11:00 654.87 0.00 59.8 36.0 --
05/24/2018 10:00 654.87 0.00 59.8 36.0 --
05/24/2018 09:00 654.87 0.00 57.0 48.0 --
05/24/2018 08:00 654.86 0.00 49.3 100.0 --
05/24/2018 07:00 654.85 0.00 47.4 100.0 --
05/24/2018 06:00 654.84 0.00 49.1 100.0 --
05/24/2018 05:00 654.84 0.00 49.1 100.0 --
05/24/2018 04:00 654.85 0.00 51.0 100.0 --
05/24/2018 03:00 654.83 0.00 57.1 87.0 --
05/24/2018 02:00 654.83 0.00 58.5 84.0 --
05/24/2018 01:00 654.82 0.00 60.4 80.0 --
05/24/2018 00:00 654.82 0.00 60.4 80.0 --
05/23/2018 23:00 654.82 0.00 61.5 71.0 --
05/23/2018 22:00 654.80 0.00 70.8 48.0 --
05/23/2018 21:00 654.81 0.00 74.7 46.0 --
05/23/2018 20:00 654.78 0.00 76.5 40.0 --
05/23/2018 19:00 654.78 0.00 76.5 40.0 --
05/23/2018 18:00 654.79 0.00 76.6 36.0 --
05/23/2018 17:00 654.79 0.01 76.7 37.0 --
05/23/2018 16:00 -- -- -- -- --
05/23/2018 15:00 -- -- -- -- --
05/23/2018 14:00 -- -- -- -- --
05/23/2018 13:00 -- -- -- -- --
05/23/2018 12:00 -- -- -- -- --
05/23/2018 11:00 -- -- -- -- --
05/23/2018 10:00 -- -- -- -- --